Time;durP1;ratioP1;P1;durP2;ratioP2;P2;SDS_P1;SDS_P2;PMS_P1;PMS_P2;Temp;Humidity;BMP_temperature;BMP_pressure;BME280_temperature;BME280_humidity;BME280_pressure;Samples;Min_cycle;Max_cycle;Signal;HPM_P1;HPM_P2
2021/05/09 00:00:27;;;;;;;3.12;1.37;;;;;;;6.27;74.41;100806.16;1703962;82;21138;-44
2021/05/09 00:02:55;;;;;;;1.72;1.35;;;;;;;6.25;74.40;100801.40;1756764;80;21566;-43
2021/05/09 00:05:24;;;;;;;2.87;1.45;;;;;;;6.22;74.35;100804.13;1694631;82;21647;-44
2021/05/09 00:07:52;;;;;;;2.67;1.42;;;;;;;6.22;74.35;100804.13;1764593;80;21161;-42
2021/05/09 00:10:20;;;;;;;3.40;1.70;;;;;;;6.15;74.57;100798.20;1724859;82;21156;-42
2021/05/09 00:12:48;;;;;;;3.87;1.60;;;;;;;6.14;74.63;100804.40;1761191;80;21103;-42
2021/05/09 00:15:21;;;;;;;4.25;2.08;;;;;;;6.09;74.70;100802.84;1694560;82;21162;-41
2021/05/09 00:17:48;;;;;;;2.80;1.75;;;;;;;6.05;74.87;100808.71;1767432;80;21602;-41
2021/05/09 00:20:16;;;;;;;1.90;1.20;;;;;;;6.03;75.05;100811.40;1730015;81;21709;-42
2021/05/09 00:22:45;;;;;;;2.85;1.60;;;;;;;6.03;75.05;100811.40;1767384;81;21187;-42
2021/05/09 00:25:12;;;;;;;2.98;1.70;;;;;;;6.04;74.94;100813.58;1762414;80;21149;-41
2021/05/09 00:27:41;;;;;;;3.33;1.77;;;;;;;6.06;74.96;100814.40;1704994;83;21598;-42
2021/05/09 00:30:10;;;;;;;2.35;1.22;;;;;;;6.06;74.92;100816.58;1767920;80;21138;-42
2021/05/09 00:32:37;;;;;;;2.50;1.55;;;;;;;6.10;74.92;100818.69;1769114;80;21142;-42
2021/05/09 00:35:06;;;;;;;2.62;1.67;;;;;;;6.12;74.96;100823.44;1726487;81;21138;-41
2021/05/09 00:37:35;;;;;;;2.27;1.45;;;;;;;6.12;74.96;100823.44;1771222;80;21123;-41
2021/05/09 00:40:04;;;;;;;4.37;2.02;;;;;;;6.10;74.88;100822.66;1697585;82;21123;-42
2021/05/09 00:42:32;;;;;;;1.67;1.22;;;;;;;6.08;74.81;100832.42;1764643;80;21131;-40
2021/05/09 00:45:00;;;;;;;2.02;1.40;;;;;;;6.04;74.71;100829.00;1728937;81;21134;-41
2021/05/09 00:47:28;;;;;;;2.27;1.72;;;;;;;6.07;74.72;100839.95;1767287;81;21146;-40
2021/05/09 00:49:57;;;;;;;1.92;1.32;;;;;;;6.08;74.72;100839.52;1764202;80;21461;-40
2021/05/09 00:52:28;;;;;;;2.65;1.75;;;;;;;6.03;74.69;100840.52;1727776;82;21154;-40
2021/05/09 00:55:01;;;;;;;5.67;1.90;;;;;;;5.96;74.63;100838.14;1769491;80;21558;-39
2021/05/09 00:57:31;;;;;;;2.15;1.65;;;;;;;5.88;74.83;100842.33;1762744;80;21134;-41
2021/05/09 01:00:00;;;;;;;3.13;2.10;;;;;;;5.82;74.97;100847.81;1697412;82;21151;-41
2021/05/09 01:02:29;;;;;;;2.90;1.90;;;;;;;5.76;75.13;100840.95;1762206;80;21152;-41
2021/05/09 01:04:59;;;;;;;2.37;1.60;;;;;;;5.77;75.33;100842.70;1765270;80;21110;-41
2021/05/09 01:07:27;;;;;;;2.58;1.65;;;;;;;5.76;75.23;100843.59;1759734;80;21140;-41
2021/05/09 01:09:59;;;;;;;3.10;1.53;;;;;;;5.76;75.23;100843.59;1748262;80;21553;-41
2021/05/09 01:12:27;;;;;;;3.30;2.20;;;;;;;5.71;75.50;100849.50;1713892;82;21146;-39
2021/05/09 01:14:57;;;;;;;2.20;1.60;;;;;;;5.71;75.63;100850.82;1760798;80;21396;-40
2021/05/09 01:17:25;;;;;;;2.92;1.67;;;;;;;5.73;75.66;100856.08;1726726;81;21165;-42
2021/05/09 01:19:53;;;;;;;1.75;1.50;;;;;;;5.72;75.64;100854.33;1720357;80;21562;-41
2021/05/09 01:22:21;;;;;;;4.15;1.72;;;;;;;5.74;75.60;100859.12;1729214;82;21665;-43
2021/05/09 01:24:49;;;;;;;2.27;1.50;;;;;;;5.77;75.53;100865.19;1767945;80;21425;-41
2021/05/09 01:27:17;;;;;;;2.80;1.92;;;;;;;5.82;75.44;100864.58;1694637;82;21503;-42
2021/05/09 01:29:45;;;;;;;2.70;1.52;;;;;;;5.88;75.33;100871.92;1696833;82;21152;-42
2021/05/09 01:32:13;;;;;;;3.40;1.65;;;;;;;5.89;75.08;100873.63;1761308;80;21142;-42
2021/05/09 01:34:41;;;;;;;3.22;1.62;;;;;;;5.86;75.02;100873.27;1761955;80;21139;-42
2021/05/09 01:37:09;;;;;;;4.17;2.30;;;;;;;5.86;75.02;100879.43;1752661;80;21141;-41
2021/05/09 01:39:37;;;;;;;3.05;2.02;;;;;;;5.84;74.95;100878.61;1763163;80;21940;-42
2021/05/09 01:42:05;;;;;;;1.65;1.52;;;;;;;5.84;74.95;100878.61;1771048;80;21162;-41
2021/05/09 01:44:35;;;;;;;2.85;1.87;;;;;;;5.82;74.77;100887.52;1739503;81;21625;-41
2021/05/09 01:47:03;;;;;;;2.90;1.42;;;;;;;5.76;74.84;100887.27;1702721;82;21162;-40
2021/05/09 01:49:32;;;;;;;2.45;1.95;;;;;;;5.74;74.88;100891.73;1764060;80;21507;-41
2021/05/09 01:51:59;;;;;;;1.35;1.05;;;;;;;5.70;74.84;100889.27;1751970;80;21142;-40
2021/05/09 01:54:27;;;;;;;2.52;1.95;;;;;;;5.65;74.96;100888.08;1706328;82;21146;-41
2021/05/09 01:56:55;;;;;;;1.85;1.50;;;;;;;5.59;75.02;100890.47;1763602;80;21468;-41
2021/05/09 01:59:24;;;;;;;2.12;1.92;;;;;;;5.53;75.20;100895.07;1727891;81;21144;-42
2021/05/09 02:01:53;;;;;;;3.08;1.90;;;;;;;5.53;75.31;100896.39;1763977;80;21161;-41
2021/05/09 02:04:22;;;;;;;2.43;1.47;;;;;;;5.52;75.43;100903.47;1769645;79;21205;-42
2021/05/09 02:06:51;;;;;;;2.58;1.50;;;;;;;5.54;75.48;100899.44;1760955;79;21164;-41
2021/05/09 02:09:19;;;;;;;2.67;1.85;;;;;;;5.53;75.68;100897.72;1773764;79;21102;-41
2021/05/09 02:11:47;;;;;;;2.35;1.62;;;;;;;5.55;75.60;100902.52;1741786;81;21142;-42
2021/05/09 02:14:32;;;;;;;2.33;1.77;;;;;;;5.58;75.46;100902.41;1806662;78;23081;-43
2021/05/09 02:17:02;;;;;;;1.75;1.65;;;;;;;5.52;75.44;100908.77;1787043;79;21144;-42
2021/05/09 02:19:30;;;;;;;2.25;1.70;;;;;;;5.50;75.38;100915.02;1762611;80;21290;-43
2021/05/09 02:21:58;;;;;;;3.02;2.00;;;;;;;5.45;75.32;100921.77;1775771;79;21183;-44
2021/05/09 02:24:26;;;;;;;2.55;1.80;;;;;;;5.41;75.42;100922.30;1753172;80;21741;-44
2021/05/09 02:26:56;;;;;;;2.20;1.37;;;;;;;5.39;75.42;100932.52;1726644;81;21158;-45
2021/05/09 02:29:23;;;;;;;2.37;1.22;;;;;;;5.39;75.58;100932.52;1713007;81;21153;-44
2021/05/09 02:31:52;;;;;;;2.40;1.42;;;;;;;5.38;75.60;100938.27;1714805;82;21133;-42
2021/05/09 02:34:21;;;;;;;2.27;1.60;;;;;;;5.36;75.60;100941.41;1722658;82;21188;-42
2021/05/09 02:36:49;;;;;;;2.27;1.62;;;;;;;5.37;75.69;100944.94;1720900;81;21118;-45
2021/05/09 02:39:16;;;;;;;8.80;2.25;;;;;;;5.35;75.60;100948.94;1714182;83;21689;-42
2021/05/09 02:41:45;;;;;;;3.87;1.77;;;;;;;5.38;75.55;100954.59;1717598;83;21268;-44
2021/05/09 02:44:13;;;;;;;2.40;1.65;;;;;;;5.39;75.44;100950.59;1748027;81;21157;-44
2021/05/09 02:46:42;;;;;;;2.80;1.70;;;;;;;5.42;75.37;100953.60;1747711;81;21609;-40
2021/05/09 02:49:10;;;;;;;2.52;1.40;;;;;;;5.39;75.33;100958.53;1739970;81;21110;-43
2021/05/09 02:51:38;;;;;;;3.45;1.90;;;;;;;5.35;75.37;100964.81;1746274;81;21118;-42
2021/05/09 02:54:06;;;;;;;3.62;1.80;;;;;;;5.38;75.43;100972.65;1722794;81;21148;-43
2021/05/09 02:56:34;;;;;;;2.27;1.67;;;;;;;5.36;75.38;100972.28;1738302;81;21153;-44
2021/05/09 02:59:02;;;;;;;2.77;1.98;;;;;;;5.30;75.29;100979.95;1724116;81;21148;-45
2021/05/09 03:01:33;;;;;;;;;;;;;;;5.28;75.42;100981.77;1738187;81;21126;-44
2021/05/09 03:04:01;;;;;;;2.60;1.57;;;;;;;5.32;75.58;100989.17;1747579;81;20177;-42
2021/05/09 03:06:30;;;;;;;2.80;1.82;;;;;;;5.34;75.54;100996.58;1718087;81;21140;-43
2021/05/09 03:08:58;;;;;;;2.55;1.67;;;;;;;5.33;75.43;101003.66;1717947;81;21122;-43
2021/05/09 03:11:28;;;;;;;2.50;1.77;;;;;;;5.36;75.47;101007.53;1741808;81;21175;-44
2021/05/09 03:13:57;;;;;;;2.37;1.85;;;;;;;5.41;75.44;101007.40;1709703;82;21208;-42
2021/05/09 03:16:25;;;;;;;2.75;2.37;;;;;;;5.44;75.41;101011.27;1773347;79;21164;-40
2021/05/09 03:18:53;;;;;;;2.27;1.90;;;;;;;5.43;75.39;101020.99;1773826;79;21992;-43
2021/05/09 03:21:21;;;;;;;3.85;2.20;;;;;;;5.43;75.39;101020.99;1712059;82;21159;-41
2021/05/09 03:23:50;;;;;;;3.47;1.60;;;;;;;5.42;75.28;101025.89;1777563;79;21149;-42
2021/05/09 03:26:17;;;;;;;2.50;1.90;;;;;;;5.47;75.32;101028.41;1734603;82;21146;-44
2021/05/09 03:28:45;;;;;;;3.20;1.77;;;;;;;5.50;75.34;101026.98;1770283;79;21149;-43
2021/05/09 03:31:12;;;;;;;3.22;2.67;;;;;;;5.54;75.31;101032.58;1774088;79;21137;-40
2021/05/09 03:33:40;;;;;;;2.50;1.90;;;;;;;5.56;75.22;101029.44;1775654;79;21169;-40
2021/05/09 03:36:08;;;;;;;3.08;2.17;;;;;;;5.57;75.03;101035.16;1772807;80;21364;-42
2021/05/09 03:38:36;;;;;;;3.02;2.20;;;;;;;5.56;74.93;101039.16;1709648;82;21191;-40
2021/05/09 03:41:04;;;;;;;3.08;1.90;;;;;;;5.59;75.01;101037.75;1772808;80;21141;-41
2021/05/09 03:43:33;;;;;;;3.00;1.80;;;;;;;5.64;75.05;101047.31;1735717;81;21660;-42
2021/05/09 03:46:01;;;;;;;2.37;1.92;;;;;;;5.69;75.12;101048.47;1773058;79;21105;-40
2021/05/09 03:48:29;;;;;;;2.55;1.75;;;;;;;5.77;75.07;101050.46;1776925;79;21138;-41
2021/05/09 03:50:57;;;;;;;2.30;1.75;;;;;;;5.80;74.90;101051.69;1734150;82;21114;-42
2021/05/09 03:53:27;;;;;;;3.40;2.30;;;;;;;5.84;74.81;101051.98;1775697;79;21168;-44
2021/05/09 03:55:55;;;;;;;6.10;2.67;;;;;;;5.86;74.61;101052.81;1736153;81;21130;-42
2021/05/09 03:58:22;;;;;;;3.33;2.00;;;;;;;5.85;74.46;101058.17;1768900;79;21106;-41
2021/05/09 04:00:50;;;;;;;3.08;2.10;;;;;;;5.84;74.58;101063.90;1734981;81;21170;-42
2021/05/09 04:03:29;;;;;;;3.52;2.25;;;;;;;5.88;74.58;101065.16;1775217;79;21174;-40
2021/05/09 04:05:57;;;;;;;2.75;2.02;;;;;;;5.92;74.57;101065.02;1775119;80;21554;-41
2021/05/09 04:08:26;;;;;;;3.85;1.82;;;;;;;5.96;74.58;101066.68;1766707;79;21141;-41
2021/05/09 04:10:56;;;;;;;2.37;1.70;;;;;;;6.00;74.30;101070.12;1767285;79;21590;-42
2021/05/09 04:13:24;;;;;;;3.50;1.90;;;;;;;6.01;74.25;101072.70;1772730;79;21114;-42
2021/05/09 04:15:52;;;;;;;4.40;2.10;;;;;;;6.03;74.04;101068.70;1771466;80;21142;-42
2021/05/09 04:18:21;;;;;;;2.33;1.62;;;;;;;6.05;74.01;101070.38;1730416;82;21170;-41
2021/05/09 04:20:48;;;;;;;3.15;2.20;;;;;;;6.09;74.03;101075.11;1703423;82;21808;-40
2021/05/09 04:23:18;;;;;;;3.62;2.15;;;;;;;6.12;74.07;101077.66;1759128;80;21465;-42
2021/05/09 04:25:49;;;;;;;2.77;1.98;;;;;;;6.18;73.64;101079.28;1762238;80;21150;-41
2021/05/09 04:28:18;;;;;;;;;;;;;;;6.23;73.55;101090.59;1766770;80;21141;-47
2021/05/09 04:30:46;;;;;;;3.42;2.65;;;;;;;6.29;73.59;101095.69;1765766;81;20159;-42
2021/05/09 04:33:14;;;;;;;3.62;2.50;;;;;;;6.34;73.52;101103.04;1732233;81;21155;-43
2021/05/09 04:35:44;;;;;;;2.75;2.22;;;;;;;6.37;73.89;101103.40;1763432;80;21118;-42
2021/05/09 04:38:12;;;;;;;2.50;1.90;;;;;;;6.41;73.69;101104.59;1762019;80;21198;-41
2021/05/09 04:40:40;;;;;;;2.62;1.75;;;;;;;6.51;73.40;101101.19;1701582;82;21147;-43
2021/05/09 04:43:10;;;;;;;2.45;1.80;;;;;;;6.60;73.22;101106.21;1755493;80;21169;-43
2021/05/09 04:45:38;;;;;;;3.80;2.00;;;;;;;6.60;73.22;101106.21;1755170;80;21123;-45
2021/05/09 04:48:07;;;;;;;3.65;1.90;;;;;;;6.70;73.11;101113.38;1756857;80;21284;-45
2021/05/09 04:50:35;;;;;;;3.15;1.92;;;;;;;6.76;72.67;101113.20;1759526;80;21993;-43
2021/05/09 04:53:03;;;;;;;3.30;2.00;;;;;;;6.80;72.33;101120.11;1698103;82;21141;-43
2021/05/09 04:55:30;;;;;;;3.20;1.90;;;;;;;6.87;72.41;101114.16;1756005;80;21138;-44
2021/05/09 04:58:00;;;;;;;3.00;2.60;;;;;;;6.91;71.99;101121.97;1761097;80;21142;-45
2021/05/09 05:00:28;;;;;;;2.20;1.77;;;;;;;7.07;71.63;101130.73;1767091;80;21288;-42
2021/05/09 05:02:56;;;;;;;2.70;2.00;;;;;;;7.07;71.63;101130.73;1758625;80;21538;-46
2021/05/09 05:05:24;;;;;;;2.92;2.00;;;;;;;7.20;71.43;101127.20;1764492;80;21130;-43
2021/05/09 05:07:52;;;;;;;3.50;2.30;;;;;;;7.20;71.43;101127.20;1761101;80;21126;-45
2021/05/09 05:10:20;;;;;;;2.87;1.90;;;;;;;7.27;71.12;101130.92;1761947;80;21154;-43
2021/05/09 05:12:48;;;;;;;2.47;1.90;;;;;;;7.33;71.00;101125.86;1749808;80;21102;-42
2021/05/09 05:15:16;;;;;;;2.27;2.00;;;;;;;7.50;70.42;101134.56;1769458;80;21141;-44
2021/05/09 05:17:44;;;;;;;3.15;1.92;;;;;;;7.50;70.42;101134.56;1769542;80;21150;-44
2021/05/09 05:20:14;;;;;;;3.52;1.95;;;;;;;7.62;69.90;101136.78;1766530;80;21560;-43
2021/05/09 05:22:42;;;;;;;3.52;2.42;;;;;;;7.62;69.90;101136.78;1710397;82;21303;-49
2021/05/09 05:25:11;;;;;;;4.35;2.20;;;;;;;7.67;68.79;101148.56;1766177;79;21581;-47
2021/05/09 05:27:39;;;;;;;3.98;2.42;;;;;;;7.72;69.07;101158.09;1703400;83;21185;-49
2021/05/09 05:30:08;;;;;;;2.62;1.77;;;;;;;7.77;68.93;101157.94;1767847;79;21546;-49
2021/05/09 05:32:40;;;;;;;2.62;1.70;;;;;;;7.83;69.04;101152.39;1768244;80;21165;-46
2021/05/09 05:35:06;;;;;;;2.90;1.82;;;;;;;7.92;69.24;101161.83;1769828;79;21159;-44
2021/05/09 05:37:35;;;;;;;2.57;1.60;;;;;;;7.97;68.17;101159.39;1771157;80;21136;-47
2021/05/09 05:40:04;;;;;;;2.42;1.82;;;;;;;8.02;67.74;101162.75;1734032;81;21121;-49
2021/05/09 05:42:32;;;;;;;2.65;1.82;;;;;;;8.08;67.48;101156.80;1709804;82;21158;-47
2021/05/09 05:45:00;;;;;;;3.50;1.75;;;;;;;8.14;67.28;101164.09;1730474;81;21292;-44
2021/05/09 05:47:27;;;;;;;5.45;1.80;;;;;;;8.20;67.10;101159.86;1767088;80;21660;-45
2021/05/09 05:49:56;;;;;;;3.95;1.87;;;;;;;8.30;65.41;101163.50;1766858;80;21445;-46
2021/05/09 05:52:24;;;;;;;3.52;2.02;;;;;;;8.30;65.41;101163.50;1767955;80;21149;-46
2021/05/09 05:54:52;;;;;;;2.08;1.57;;;;;;;8.33;65.38;101170.88;1769918;79;21165;-45
2021/05/09 05:57:20;;;;;;;4.25;1.72;;;;;;;8.37;65.78;101164.53;1765498;80;21572;-45
2021/05/09 05:59:48;;;;;;;2.77;2.02;;;;;;;8.43;65.34;101162.98;1768326;79;21133;-46
2021/05/09 06:02:15;;;;;;;2.70;2.10;;;;;;;8.49;64.49;101160.55;1733339;81;21118;-43
2021/05/09 06:04:43;;;;;;;1.98;1.47;;;;;;;8.55;64.23;101162.13;1769957;79;21130;-45
2021/05/09 06:07:14;;;;;;;2.83;1.42;;;;;;;8.60;63.89;101161.48;1765636;80;21165;-45
2021/05/09 06:09:42;;;;;;;3.58;2.10;;;;;;;8.68;63.47;101166.49;1766726;79;21137;-41
2021/05/09 06:12:10;;;;;;;2.50;1.77;;;;;;;8.74;62.86;101165.77;1774169;80;21159;-44
2021/05/09 06:14:38;;;;;;;1.75;1.55;;;;;;;8.83;62.54;101165.41;1776730;79;21129;-43
2021/05/09 06:17:06;;;;;;;2.95;1.90;;;;;;;8.92;62.57;101163.29;1761581;80;21153;-45
2021/05/09 06:19:34;;;;;;;2.30;1.67;;;;;;;9.00;62.01;101166.05;1759991;80;21117;-44
2021/05/09 06:22:02;;;;;;;3.47;1.87;;;;;;;9.05;62.11;101169.86;1769404;80;21149;-43
2021/05/09 06:24:29;;;;;;;4.37;1.70;;;;;;;9.14;62.30;101175.25;1761417;80;21657;-47
2021/05/09 06:26:57;;;;;;;2.40;1.77;;;;;;;9.24;61.05;101175.27;1759861;80;21149;-44
2021/05/09 06:29:24;;;;;;;2.50;1.65;;;;;;;9.30;60.91;101166.57;1760234;80;21138;-45
2021/05/09 06:31:52;;;;;;;2.77;1.47;;;;;;;9.38;60.56;101175.56;1758286;80;21140;-44
2021/05/09 06:34:20;;;;;;;3.17;1.95;;;;;;;9.46;60.69;101171.24;1752229;80;21151;-44
2021/05/09 06:36:48;;;;;;;2.30;1.62;;;;;;;9.53;60.31;101174.05;1758839;80;21134;-44
2021/05/09 06:39:25;;;;;;;1.80;1.40;;;;;;;9.60;59.81;101174.62;1760264;81;21145;-43
2021/05/09 06:41:46;;;;;;;2.83;1.60;;;;;;;9.64;59.34;101172.23;1758127;80;21287;-46
2021/05/09 06:44:14;;;;;;;2.55;1.37;;;;;;;9.71;58.23;101179.03;1718457;82;21636;-45
2021/05/09 06:46:42;;;;;;;1.82;1.30;;;;;;;9.81;57.14;101175.50;1764474;81;21130;-45
2021/05/09 06:49:10;;;;;;;2.20;1.42;;;;;;;9.89;56.71;101173.35;1760279;80;21133;-44
2021/05/09 06:51:38;;;;;;;2.00;1.25;;;;;;;9.94;56.44;101180.20;1756982;80;21153;-46
2021/05/09 06:54:06;;;;;;;2.33;1.70;;;;;;;9.98;56.36;101179.61;1760019;80;21198;-45
2021/05/09 06:56:36;;;;;;;5.53;1.70;;;;;;;10.01;56.97;101174.14;1755010;81;21143;-47
2021/05/09 06:59:04;;;;;;;2.60;1.45;;;;;;;10.07;57.11;101183.17;1752815;80;21581;-44
2021/05/09 07:01:32;;;;;;;1.98;1.45;;;;;;;10.15;57.38;101180.16;1754144;81;21628;-47
2021/05/09 07:04:02;;;;;;;1.98;1.37;;;;;;;10.24;57.69;101182.89;1757480;81;21130;-46
2021/05/09 07:06:33;;;;;;;1.30;1.20;;;;;;;10.33;57.31;101179.36;1760125;80;21605;-45
2021/05/09 07:09:05;;;;;;;3.80;1.90;;;;;;;10.41;55.64;101184.34;1682199;83;21137;-44
2021/05/09 07:11:35;;;;;;;2.67;1.55;;;;;;;10.46;54.81;101182.33;1750677;80;21604;-42
2021/05/09 07:14:06;;;;;;;2.70;1.50;;;;;;;10.53;53.90;101176.21;1759981;81;21133;-46
2021/05/09 07:16:35;;;;;;;2.60;1.20;;;;;;;10.58;53.59;101183.08;1756626;80;21161;-44
2021/05/09 07:19:06;;;;;;;1.87;1.60;;;;;;;10.63;53.19;101184.17;1756702;80;21162;-41
2021/05/09 07:21:38;;;;;;;1.62;1.50;;;;;;;10.68;52.52;101177.28;1752063;80;21594;-45
2021/05/09 07:24:04;;;;;;;2.30;1.72;;;;;;;10.72;52.50;101173.55;1762076;80;21583;-42
2021/05/09 07:26:33;;;;;;;2.85;1.72;;;;;;;10.78;52.82;101171.91;1761837;80;21130;-41
2021/05/09 07:29:02;;;;;;;2.52;1.30;;;;;;;10.84;52.46;101164.95;1764377;80;21270;-41
2021/05/09 07:31:32;;;;;;;2.22;1.35;;;;;;;10.93;52.34;101172.48;1765199;80;21277;-42
2021/05/09 07:34:01;;;;;;;1.50;1.32;;;;;;;11.01;51.37;101173.44;1717113;82;21139;-41
2021/05/09 07:36:30;;;;;;;1.65;1.20;;;;;;;11.04;50.82;101165.31;1760343;80;21177;-41
2021/05/09 07:38:58;;;;;;;2.60;1.42;;;;;;;11.02;50.38;101166.70;1703796;82;21167;-41
2021/05/09 07:41:26;;;;;;;2.22;1.50;;;;;;;10.99;47.70;101175.34;1762307;80;21102;-39
2021/05/09 07:43:54;;;;;;;3.90;1.50;;;;;;;10.95;47.92;101172.42;1698705;82;21154;-42
2021/05/09 07:46:22;;;;;;;2.05;1.17;;;;;;;10.92;48.83;101170.77;1761400;80;21657;-41
2021/05/09 07:48:51;;;;;;;3.55;1.70;;;;;;;10.94;49.35;101172.05;1764230;79;21530;-41
2021/05/09 07:51:18;;;;;;;1.55;1.10;;;;;;;11.01;48.20;101162.77;1757407;79;21149;-43
2021/05/09 07:53:47;;;;;;;1.55;1.10;;;;;;;11.10;49.71;101165.47;1762169;80;21138;-41
2021/05/09 07:56:14;;;;;;;1.42;1.27;;;;;;;11.16;49.11;101172.70;1732566;81;21147;-42
2021/05/09 07:58:42;;;;;;;2.75;1.72;;;;;;;11.22;48.14;101171.53;1764414;80;21138;-41
2021/05/09 08:01:10;;;;;;;1.45;1.20;;;;;;;11.23;47.75;101167.91;1702809;82;21142;-42
2021/05/09 08:03:38;;;;;;;1.55;0.90;;;;;;;11.22;47.98;101176.87;1765768;80;21114;-41
2021/05/09 08:06:06;;;;;;;1.47;1.27;;;;;;;11.23;47.97;101171.91;1760846;80;21503;-43
2021/05/09 08:08:34;;;;;;;3.27;1.10;;;;;;;11.25;48.12;101168.22;1701146;82;21174;-43
2021/05/09 08:11:02;;;;;;;2.62;1.57;;;;;;;11.29;47.94;101168.06;1768257;80;21141;-40
2021/05/09 08:13:31;;;;;;;1.27;1.15;;;;;;;11.29;49.34;101168.06;1725426;82;21138;-41
2021/05/09 08:15:59;;;;;;;1.80;1.62;;;;;;;11.32;48.75;101169.27;1762070;80;21136;-40
2021/05/09 08:18:26;;;;;;;2.25;1.35;;;;;;;11.41;45.93;101169.63;1764285;80;21173;-40
2021/05/09 08:20:56;;;;;;;0.98;0.88;;;;;;;11.44;46.15;101170.84;1761277;80;21501;-40
2021/05/09 08:23:24;;;;;;;1.30;1.10;;;;;;;11.43;46.99;101164.23;1761197;80;21303;-41
2021/05/09 08:25:53;;;;;;;1.37;1.07;;;;;;;11.42;46.64;101168.70;1763139;80;21134;-40
2021/05/09 08:28:21;;;;;;;1.40;0.90;;;;;;;11.47;44.74;101164.00;1758246;80;21102;-40
2021/05/09 08:30:48;;;;;;;3.00;1.65;;;;;;;11.55;45.92;101168.94;1765583;80;21090;-40
2021/05/09 08:33:16;;;;;;;2.17;0.93;;;;;;;11.69;46.52;101170.43;1764948;80;21422;-39
2021/05/09 08:35:44;;;;;;;1.67;1.30;;;;;;;11.86;46.85;101170.89;1759404;80;21122;-40
2021/05/09 08:38:12;;;;;;;1.30;1.20;;;;;;;12.03;44.25;101166.47;1768590;80;21358;-40
2021/05/09 08:40:40;;;;;;;1.65;1.30;;;;;;;12.13;44.41;101163.69;1765965;80;21165;-39
2021/05/09 08:43:07;;;;;;;1.85;1.10;;;;;;;12.23;44.98;101162.23;1757897;80;21150;-40
2021/05/09 08:45:35;;;;;;;1.70;1.32;;;;;;;12.32;45.68;101163.08;1725935;81;21701;-40
2021/05/09 08:48:05;;;;;;;1.40;1.07;;;;;;;12.32;44.23;101154.17;1695789;83;21118;-41
2021/05/09 08:50:33;;;;;;;1.80;1.27;;;;;;;12.27;45.51;101151.78;1702127;83;21689;-40
2021/05/09 08:53:00;;;;;;;1.65;1.30;;;;;;;12.26;45.43;101159.39;1723383;82;21506;-40
2021/05/09 08:55:28;;;;;;;1.50;1.00;;;;;;;12.23;45.27;101163.58;1705279;82;21871;-40
2021/05/09 08:57:58;;;;;;;2.05;1.25;;;;;;;12.24;43.81;101161.28;1758339;80;21149;-40
2021/05/09 09:00:26;;;;;;;1.32;1.02;;;;;;;12.28;44.43;101146.80;1703048;82;21183;-40
2021/05/09 09:02:57;;;;;;;0.70;0.70;;;;;;;12.33;42.64;101151.91;1758903;81;21130;-40
2021/05/09 09:05:45;;;;;;;1.35;0.90;;;;;;;12.36;42.43;101158.41;1695788;82;21131;-42
2021/05/09 09:10:52;;;;;;;1.12;1.02;;;;;;;12.50;43.55;101164.35;1802775;78;22977;-42
2021/05/09 09:13:33;;;;;;;1.35;0.85;;;;;;;12.47;43.39;101169.84;1776360;79;21101;-41
2021/05/09 09:16:05;;;;;;;1.47;1.02;;;;;;;12.45;42.56;101176.64;1773935;79;21566;-41
2021/05/09 09:18:44;;;;;;;1.17;1.02;;;;;;;12.46;42.56;101177.50;1778379;79;21118;-41
2021/05/09 09:21:30;;;;;;;1.40;1.00;;;;;;;12.51;42.48;101164.73;1777582;79;21883;-41
2021/05/09 09:24:06;;;;;;;0.90;0.70;;;;;;;12.58;42.07;101162.59;1777641;80;21486;-42
2021/05/09 09:26:42;;;;;;;2.00;1.00;;;;;;;12.59;41.23;101169.17;1773048;80;21102;-42
2021/05/09 09:32:09;;;;;;;1.62;1.05;;;;;;;12.57;42.93;101159.02;1755296;79;23883;-38
2021/05/09 09:34:45;;;;;;;3.77;1.10;;;;;;;12.56;43.32;101160.84;1735434;80;21575;-40
2021/05/09 09:37:14;;;;;;;1.22;1.10;;;;;;;12.65;44.46;101166.16;1739800;80;21142;-43
2021/05/09 09:39:54;;;;;;;2.20;1.00;;;;;;;12.74;42.49;101164.77;1738963;80;21581;-41
2021/05/09 09:42:46;;;;;;;1.00;0.90;;;;;;;12.68;41.82;101159.30;1733810;82;21098;-42
2021/05/09 09:45:25;;;;;;;1.00;0.90;;;;;;;12.59;41.79;101167.83;1737085;80;21155;-42
2021/05/09 09:48:01;;;;;;;1.40;1.00;;;;;;;12.61;42.67;101167.76;1736817;80;21864;-42
2021/05/09 09:50:46;;;;;;;1.07;0.95;;;;;;;12.71;41.11;101160.94;1730876;82;21145;-40
2021/05/09 09:53:34;;;;;;;1.57;1.30;;;;;;;12.76;41.95;101171.76;1736476;80;21177;-42
2021/05/09 09:56:22;;;;;;;2.15;1.32;;;;;;;12.78;41.98;101168.52;1736714;80;21125;-41
2021/05/09 09:59:02;;;;;;;2.52;1.20;;;;;;;12.88;43.28;101179.58;1736887;80;21594;-41
2021/05/09 10:01:33;;;;;;;2.25;1.67;;;;;;;12.97;43.18;101180.36;1699075;82;21113;-41
2021/05/09 10:04:07;;;;;;;4.60;1.20;;;;;;;13.03;41.55;101182.30;1692334;82;21137;-41
2021/05/09 10:09:14;;;;;;;1.90;0.80;;;;;;;13.07;42.17;101178.50;1758335;79;22952;-41
2021/05/09 10:11:43;;;;;;;0.90;0.80;;;;;;;12.98;41.69;101178.58;1731254;82;21129;-42
2021/05/09 10:14:11;;;;;;;1.45;1.02;;;;;;;12.97;42.58;101187.05;1740069;80;21649;-42
2021/05/09 10:16:41;;;;;;;1.30;1.07;;;;;;;12.99;42.31;101181.63;1730187;80;21650;-41
2021/05/09 10:19:13;;;;;;;1.42;1.02;;;;;;;13.01;41.50;101179.73;1735532;82;21662;-41
2021/05/09 10:21:42;;;;;;;1.57;1.07;;;;;;;13.07;42.59;101183.38;1741888;80;21138;-40
2021/05/09 10:24:21;;;;;;;1.60;1.20;;;;;;;13.16;42.75;101180.18;1721924;82;21218;-40
2021/05/09 10:27:01;;;;;;;1.22;1.10;;;;;;;13.21;43.91;101186.13;1717965;82;21149;-40
2021/05/09 10:29:39;;;;;;;1.70;0.90;;;;;;;13.27;42.81;101186.75;1716604;82;21546;-40
2021/05/09 10:32:23;;;;;;;2.02;1.00;;;;;;;13.30;41.26;101194.59;1723333;82;21141;-42
2021/05/09 10:34:57;;;;;;;1.70;1.27;;;;;;;13.28;40.65;101201.41;1719240;82;21138;-42
2021/05/09 10:37:46;;;;;;;2.02;1.30;;;;;;;13.27;42.59;101196.13;1717178;82;21834;-44
2021/05/09 10:40:36;;;;;;;1.00;0.85;;;;;;;13.33;41.17;101204.68;1720882;82;21574;-45
2021/05/09 10:43:11;;;;;;;2.47;1.00;;;;;;;13.40;41.04;101209.17;1720404;82;21110;-45
2021/05/09 10:45:44;;;;;;;1.37;1.10;;;;;;;13.47;40.27;101202.51;1719169;82;21300;-43
2021/05/09 10:51:09;;;;;;;1.52;1.10;;;;;;;13.42;39.71;101198.75;1719417;82;21149;-42
2021/05/09 10:53:40;;;;;;;1.10;0.82;;;;;;;13.33;40.12;101191.73;1719909;82;21137;-41
2021/05/09 10:56:18;;;;;;;2.47;1.47;;;;;;;13.28;38.97;101192.48;1718035;82;21515;-42
2021/05/09 10:58:53;;;;;;;2.20;1.20;;;;;;;13.26;39.88;101195.72;1694015;83;21458;-43
2021/05/09 11:01:31;;;;;;;2.60;1.20;;;;;;;13.23;41.47;101194.53;1717937;82;21672;-40
2021/05/09 11:04:07;;;;;;;1.95;1.12;;;;;;;13.18;42.09;101193.49;1718201;82;21888;-44
2021/05/09 11:06:43;;;;;;;2.72;1.37;;;;;;;13.16;41.78;101192.71;1719518;82;21174;-42
2021/05/09 11:09:26;;;;;;;2.50;1.20;;;;;;;13.15;41.52;101193.64;1708713;83;21121;-42
2021/05/09 11:11:56;;;;;;;1.87;1.30;;;;;;;13.19;40.83;101192.05;1720620;82;21150;-44
2021/05/09 11:14:24;;;;;;;1.82;1.00;;;;;;;13.32;40.60;101190.02;1720252;82;21161;-44
2021/05/09 11:17:07;;;;;;;2.25;1.40;;;;;;;13.43;41.25;101190.27;1721167;82;21177;-41
2021/05/09 11:19:41;;;;;;;3.10;1.25;;;;;;;13.52;40.57;101186.16;1718489;82;21570;-42
2021/05/09 11:22:10;;;;;;;1.27;0.82;;;;;;;13.66;40.50;101181.30;1720127;82;22244;-41
2021/05/09 11:24:39;;;;;;;1.92;1.15;;;;;;;13.79;39.74;101189.01;1723269;82;21363;-43
2021/05/09 11:27:12;;;;;;;1.77;0.90;;;;;;;13.87;39.81;101191.22;1717407;82;21195;-41
2021/05/09 11:29:41;;;;;;;1.82;1.17;;;;;;;13.90;39.37;101184.33;1719275;82;21161;-42
2021/05/09 11:32:19;;;;;;;1.45;0.88;;;;;;;13.97;39.41;101176.30;1714901;82;21138;-41
2021/05/09 11:34:51;;;;;;;1.57;0.95;;;;;;;14.00;39.01;101178.78;1711645;82;21942;-41
2021/05/09 11:37:20;;;;;;;1.82;0.90;;;;;;;13.98;39.28;101182.87;1718305;82;21275;-42
2021/05/09 11:39:49;;;;;;;1.35;1.00;;;;;;;13.95;38.67;101177.72;1721278;82;21664;-41
2021/05/09 11:42:18;;;;;;;1.37;0.90;;;;;;;13.91;38.52;101171.29;1720052;82;21568;-41
2021/05/09 11:44:56;;;;;;;1.45;0.80;;;;;;;13.91;37.37;101168.61;1716055;82;21153;-41
2021/05/09 11:47:31;;;;;;;2.58;0.80;;;;;;;13.91;36.59;101166.81;1717032;82;21129;-42
2021/05/09 11:50:03;;;;;;;1.30;1.00;;;;;;;13.98;37.31;101180.69;1717312;82;21446;-43
2021/05/09 11:52:32;;;;;;;;;;;;;;;14.04;37.24;101175.81;1723264;82;21157;-49
2021/05/09 11:55:04;;;;;;;0.90;0.70;;;;;;;14.12;37.86;101171.80;1720071;82;20172;-42